Time;durP1;ratioP1;P1;durP2;ratioP2;P2;SDS_P1;SDS_P2;PMS_P1;PMS_P2;Temp;Humidity;BMP_temperature;BMP_pressure;BME280_temperature;BME280_humidity;BME280_pressure;Samples;Min_cycle;Max_cycle;Signal;HPM_P1;HPM_P2
2022/05/16 00:01:17;;;;;;;3.33;1.50;;;;;;;12.67;100.00;98567.56;15274759;19;20455;-76
2022/05/16 00:06:25;;;;;;;2.75;1.40;;;;;;;12.57;100.00;98574.00;15275610;19;20018;-76
2022/05/16 00:11:30;;;;;;;4.55;1.40;;;;;;;12.47;100.00;98570.63;15281060;19;20006;-77
2022/05/16 00:16:35;;;;;;;2.63;1.40;;;;;;;12.40;100.00;98573.19;15279064;19;20027;-76
2022/05/16 00:21:43;;;;;;;4.40;1.70;;;;;;;12.25;100.00;98569.44;15277172;19;20018;-77
2022/05/16 00:26:48;;;;;;;3.40;1.75;;;;;;;12.07;100.00;98565.06;15266345;19;20011;-75
2022/05/16 00:31:54;;;;;;;3.78;1.70;;;;;;;12.03;100.00;98563.69;15277849;19;20014;-77
2022/05/16 00:37:02;;;;;;;4.20;1.60;;;;;;;11.94;100.00;98554.72;15277506;19;20007;-76
2022/05/16 00:42:08;;;;;;;2.55;1.30;;;;;;;11.91;100.00;98555.06;15284643;19;20480;-75
2022/05/16 00:47:14;;;;;;;4.32;1.50;;;;;;;11.89;100.00;98546.28;15285859;19;20029;-76
2022/05/16 00:52:27;;;;;;;3.42;1.50;;;;;;;11.87;100.00;98548.28;15290829;19;20039;-76
2022/05/16 00:57:40;;;;;;;2.33;1.30;;;;;;;11.83;100.00;98538.84;15322345;19;20018;-76
2022/05/16 01:08:11;;;;;;;3.08;1.38;;;;;;;11.69;100.00;98540.34;15291149;19;20020;-77
2022/05/16 01:13:16;;;;;;;3.95;1.30;;;;;;;11.63;100.00;98532.91;15292935;19;20003;-75
2022/05/16 01:18:23;;;;;;;3.85;1.50;;;;;;;11.55;100.00;98522.94;15295021;19;20022;-77
2022/05/16 01:23:36;;;;;;;2.67;1.42;;;;;;;11.49;100.00;98518.19;15288722;19;20018;-76
2022/05/16 01:28:41;;;;;;;5.68;1.50;;;;;;;11.38;100.00;98517.50;15283220;19;20006;-76
2022/05/16 01:33:46;;;;;;;4.55;1.55;;;;;;;11.28;100.00;98515.97;15292565;19;20014;-75
2022/05/16 01:38:54;;;;;;;3.08;1.42;;;;;;;11.18;100.00;98510.69;15298107;19;20478;-74
2022/05/16 01:44:02;;;;;;;2.97;1.48;;;;;;;11.07;100.00;98504.59;15295469;19;20014;-77
2022/05/16 01:49:07;;;;;;;4.47;1.70;;;;;;;10.97;100.00;98506.56;15302161;19;20015;-77
2022/05/16 01:54:15;;;;;;;3.97;1.48;;;;;;;10.92;100.00;98500.81;15311192;19;20015;-76
2022/05/16 01:59:20;;;;;;;2.95;1.40;;;;;;;10.80;100.00;98492.19;15312091;19;20458;-78
2022/05/16 02:04:25;;;;;;;3.28;1.30;;;;;;;10.75;100.00;98489.09;15302207;19;20010;-77
2022/05/16 02:09:33;;;;;;;2.50;1.30;;;;;;;10.72;100.00;98482.19;15302840;19;20014;-76
2022/05/16 02:14:38;;;;;;;2.47;1.15;;;;;;;10.69;100.00;98482.50;15311415;19;20491;-79
2022/05/16 02:19:43;;;;;;;3.67;1.33;;;;;;;10.64;100.00;98479.47;15312857;19;20019;-72
2022/05/16 02:24:51;;;;;;;2.92;1.40;;;;;;;10.63;100.00;98485.88;15310889;19;20022;-78
2022/05/16 02:29:56;;;;;;;3.47;1.30;;;;;;;10.62;100.00;98481.47;15313092;19;20007;-78
2022/05/16 02:35:02;;;;;;;3.20;1.30;;;;;;;10.59;100.00;98479.09;15308981;19;20007;-76
2022/05/16 02:40:12;;;;;;;4.10;1.40;;;;;;;10.57;100.00;98473.03;15320386;19;20007;-77
2022/05/16 02:45:18;;;;;;;2.70;1.35;;;;;;;10.64;100.00;98471.38;15341869;19;20030;-76
2022/05/16 02:50:24;;;;;;;2.58;1.15;;;;;;;10.75;100.00;98467.56;15339904;19;20022;-77
2022/05/16 02:55:33;;;;;;;7.50;1.30;;;;;;;10.86;100.00;98463.75;15292654;19;20014;-76
2022/05/16 03:00:38;;;;;;;2.78;1.20;;;;;;;10.93;100.00;98462.94;15290016;19;20011;-77
2022/05/16 03:05:44;;;;;;;3.08;1.20;;;;;;;10.97;100.00;98454.50;15286893;19;20018;-76
2022/05/16 03:10:52;;;;;;;2.67;1.30;;;;;;;11.03;100.00;98460.09;15287712;19;20023;-79
2022/05/16 03:15:57;;;;;;;3.53;1.40;;;;;;;11.10;100.00;98450.34;15302239;19;20007;-80
2022/05/16 03:21:02;;;;;;;2.47;1.10;;;;;;;11.14;100.00;98458.09;15303927;19;20045;-79
2022/05/16 03:26:12;;;;;;;2.67;1.33;;;;;;;11.17;100.00;98449.69;15301644;19;20019;-78
2022/05/16 03:31:17;;;;;;;5.63;1.50;;;;;;;11.15;100.00;98436.38;15291565;19;20089;-80
2022/05/16 03:36:22;;;;;;;3.47;1.50;;;;;;;11.07;100.00;98442.56;15288583;19;20038;-76
2022/05/16 03:41:30;;;;;;;3.10;1.30;;;;;;;10.99;100.00;98442.56;15284779;19;20078;-76
2022/05/16 03:46:35;;;;;;;4.60;1.40;;;;;;;10.97;100.00;98444.56;15283108;19;20441;-77
2022/05/16 03:51:41;;;;;;;2.70;1.20;;;;;;;10.97;100.00;98452.66;15279754;19;20018;-76
2022/05/16 03:56:49;;;;;;;4.30;1.52;;;;;;;11.02;100.00;98455.69;15271816;19;20010;-74
2022/05/16 04:01:54;;;;;;;5.63;1.80;;;;;;;11.09;100.00;98442.41;15270227;19;20035;-74
2022/05/16 04:06:59;;;;;;;4.47;1.70;;;;;;;11.12;100.00;98441.22;15270068;19;20039;-74
2022/05/16 04:12:08;;;;;;;4.40;1.50;;;;;;;11.17;100.00;98433.50;15269530;19;20662;-74
2022/05/16 04:17:13;;;;;;;3.65;1.55;;;;;;;11.23;100.00;98438.25;15271365;19;20031;-74
2022/05/16 04:22:18;;;;;;;4.15;1.58;;;;;;;11.32;100.00;98434.56;15275462;19;20022;-75
2022/05/16 04:27:26;;;;;;;4.72;1.67;;;;;;;11.45;100.00;98444.84;15275191;19;20023;-75
2022/05/16 04:32:31;;;;;;;5.28;1.90;;;;;;;11.57;100.00;98445.38;15276472;19;20010;-75
2022/05/16 04:37:36;;;;;;;5.32;1.70;;;;;;;11.69;100.00;98451.28;15277039;19;20010;-73
2022/05/16 04:42:44;;;;;;;4.90;1.92;;;;;;;11.82;100.00;98450.75;15269604;19;20074;-75
2022/05/16 04:47:50;;;;;;;5.13;1.88;;;;;;;11.93;100.00;98455.00;15273927;19;20318;-74
2022/05/16 04:52:56;;;;;;;5.78;2.17;;;;;;;12.06;100.00;98452.66;15273410;19;20011;-75
2022/05/16 04:58:03;;;;;;;5.90;1.83;;;;;;;12.22;100.00;98456.38;15274658;19;20010;-75
2022/05/16 05:03:08;;;;;;;3.53;1.50;;;;;;;12.45;100.00;98433.00;15272915;19;20094;-75
2022/05/16 05:08:13;;;;;;;5.13;1.65;;;;;;;12.70;100.00;98429.38;15273349;19;20476;-75
2022/05/16 05:18:43;;;;;;;4.63;1.63;;;;;;;13.27;100.00;98452.59;15271838;19;20476;-75
2022/05/16 05:23:49;;;;;;;4.15;1.60;;;;;;;13.59;100.00;98430.94;15283758;19;20006;-76
2022/05/16 05:28:56;;;;;;;5.00;1.60;;;;;;;13.87;100.00;98452.91;15284955;19;20014;-75
2022/05/16 05:34:01;;;;;;;7.25;1.70;;;;;;;14.03;100.00;98460.06;15294354;19;20020;-75
2022/05/16 05:39:07;;;;;;;5.60;1.75;;;;;;;14.20;100.00;98454.47;15290388;19;20014;-74
2022/05/16 05:44:14;;;;;;;4.38;1.83;;;;;;;14.39;100.00;98466.66;15287198;19;20007;-76
2022/05/16 05:49:19;;;;;;;4.05;1.67;;;;;;;14.64;100.00;98459.94;15290082;19;20022;-76
2022/05/16 05:54:24;;;;;;;4.47;1.80;;;;;;;14.83;100.00;98448.75;15292040;19;20010;-77
2022/05/16 05:59:32;;;;;;;4.40;1.70;;;;;;;15.04;100.00;98443.38;15296721;19;20111;-77
2022/05/16 06:04:38;;;;;;;6.07;1.80;;;;;;;15.20;100.00;98442.31;15290332;19;20584;-76
2022/05/16 06:09:44;;;;;;;7.57;1.90;;;;;;;15.37;100.00;98439.41;15293637;19;20031;-76
2022/05/16 06:14:51;;;;;;;6.45;1.88;;;;;;;15.55;100.00;98434.34;15343463;19;20023;-74
2022/05/16 06:19:57;;;;;;;3.80;1.63;;;;;;;15.76;100.00;98426.41;15318135;19;20010;-76
2022/05/16 06:30:23;;;;;;;4.45;1.63;;;;;;;16.14;100.00;98428.84;15284201;19;20042;-74
2022/05/16 06:35:28;;;;;;;6.53;1.98;;;;;;;16.36;100.00;98432.34;15285393;19;20027;-76
2022/05/16 06:40:32;;;;;;;5.35;1.50;;;;;;;16.62;100.00;98428.97;15287389;19;20496;-74
2022/05/16 06:45:40;;;;;;;4.10;1.45;;;;;;;16.84;100.00;98426.16;15289450;19;20027;-77
2022/05/16 06:50:48;;;;;;;3.40;1.50;;;;;;;17.07;100.00;98425.03;15352181;19;20043;-75
2022/05/16 06:55:53;;;;;;;6.78;1.50;;;;;;;17.29;100.00;98414.00;15299043;19;20731;-76
2022/05/16 07:01:00;;;;;;;6.53;1.60;;;;;;;17.58;100.00;98414.72;15284387;19;20014;-75
2022/05/16 07:06:06;;;;;;;4.03;1.50;;;;;;;17.80;100.00;98412.63;15283783;19;20018;-75
2022/05/16 07:11:11;;;;;;;5.60;1.50;;;;;;;18.01;100.00;98417.09;15282509;19;20082;-75
2022/05/16 07:16:19;;;;;;;5.20;1.52;;;;;;;18.22;100.00;98409.72;15281982;19;20031;-75
2022/05/16 07:21:24;;;;;;;2.58;1.33;;;;;;;18.40;100.00;98409.94;15291098;19;20377;-77
2022/05/16 07:31:51;;;;;;;4.88;1.75;;;;;;;18.96;100.00;98393.19;15282766;19;20014;-78
2022/05/16 07:36:56;;;;;;;3.72;1.40;;;;;;;19.12;100.00;98392.72;15276065;19;20074;-75
2022/05/16 07:42:02;;;;;;;3.42;1.50;;;;;;;19.43;98.79;98403.91;15280288;19;20010;-76
2022/05/16 07:47:10;;;;;;;4.50;1.50;;;;;;;19.76;98.00;98397.38;15276785;19;20070;-77
2022/05/16 07:52:15;;;;;;;3.22;1.40;;;;;;;20.09;93.01;98404.47;15286640;19;20070;-79
2022/05/16 07:57:20;;;;;;;2.90;1.35;;;;;;;20.38;84.89;98408.44;15279771;19;20740;-78
2022/05/16 08:02:28;;;;;;;5.63;1.60;;;;;;;20.62;85.51;98411.34;15290102;19;20042;-78
2022/05/16 08:07:33;;;;;;;4.10;1.50;;;;;;;20.91;83.27;98411.69;15293361;19;20016;-79
2022/05/16 08:12:40;;;;;;;7.18;1.33;;;;;;;21.03;82.13;98417.22;15292129;19;20014;-79
2022/05/16 08:17:48;;;;;;;4.15;1.50;;;;;;;21.29;80.73;98416.03;15289256;19;20018;-77
2022/05/16 08:22:53;;;;;;;3.72;1.50;;;;;;;21.44;80.25;98404.69;15290409;19;20081;-78
2022/05/16 08:27:58;;;;;;;3.67;1.40;;;;;;;21.64;79.76;98411.81;15289654;19;20014;-77
2022/05/16 08:33:07;;;;;;;3.20;1.33;;;;;;;21.92;79.35;98410.34;15284055;19;20014;-77
2022/05/16 08:43:45;;;;;;;5.55;1.42;;;;;;;22.32;71.34;98404.16;15286868;19;20086;-78
2022/05/16 08:48:58;;;;;;;5.57;1.60;;;;;;;22.61;71.31;98396.88;15287627;19;20039;-77
2022/05/16 08:54:11;;;;;;;4.28;1.20;;;;;;;22.77;67.78;98397.22;15285603;19;20018;-78
2022/05/16 08:59:20;;;;;;;3.83;1.30;;;;;;;23.00;67.50;98384.53;15288611;19;20482;-77
2022/05/16 09:04:31;;;;;;;3.05;1.30;;;;;;;23.23;68.77;98383.63;15280720;19;20035;-77
2022/05/16 09:09:45;;;;;;;3.13;1.40;;;;;;;23.60;64.81;98382.41;15301439;19;20123;-78
2022/05/16 09:15:06;;;;;;;3.45;1.30;;;;;;;23.86;62.33;98372.66;15300776;19;20011;-78
2022/05/16 09:20:24;;;;;;;4.73;1.23;;;;;;;24.08;58.13;98377.44;15304000;19;20382;-78
2022/05/16 09:25:38;;;;;;;2.42;1.15;;;;;;;24.29;58.70;98356.56;15297399;19;20514;-77
2022/05/16 09:30:49;;;;;;;4.45;1.20;;;;;;;24.45;57.37;98366.72;15298631;19;20354;-78
2022/05/16 09:36:01;;;;;;;3.17;1.17;;;;;;;24.60;57.05;98354.25;15293818;19;20026;-78
2022/05/16 09:41:17;;;;;;;2.45;0.90;;;;;;;24.77;55.28;98351.47;15303676;19;20046;-79
2022/05/16 09:46:28;;;;;;;5.13;1.00;;;;;;;24.99;50.75;98353.41;15298344;19;20006;-79
2022/05/16 09:51:41;;;;;;;4.38;1.08;;;;;;;25.19;50.29;98355.53;15300593;19;20010;-78
2022/05/16 09:57:13;;;;;;;2.13;1.00;;;;;;;25.41;48.54;98360.19;15299378;19;20015;-79
2022/05/16 10:02:22;;;;;;;2.85;0.90;;;;;;;25.30;48.48;98360.06;15303969;19;20097;-78
2022/05/16 10:07:34;;;;;;;1.90;0.77;;;;;;;25.33;49.57;98353.22;15302454;19;20011;-77
2022/05/16 10:12:39;;;;;;;;;;;;;;;25.53;47.19;98355.34;15334458;19;20018;-78
2022/05/16 10:17:47;;;;;;;3.13;1.00;;;;;;;25.80;49.58;98357.25;15343271;19;19919;-76
2022/05/16 10:22:58;;;;;;;3.65;1.08;;;;;;;26.07;47.85;98357.19;15295836;19;20098;-78
2022/05/16 10:28:15;;;;;;;1.80;0.90;;;;;;;26.23;47.85;98360.13;15298239;19;20038;-77
2022/05/16 10:33:28;;;;;;;1.92;0.95;;;;;;;26.30;48.96;98361.56;15293884;19;20010;-77
2022/05/16 10:38:42;;;;;;;1.83;0.75;;;;;;;26.26;46.58;98359.59;15290207;19;20854;-78
2022/05/16 10:43:55;;;;;;;3.97;1.10;;;;;;;26.04;47.06;98363.28;15299281;19;20407;-78
2022/05/16 10:49:03;;;;;;;1.98;0.85;;;;;;;25.94;48.24;98368.69;15299904;19;20059;-78
2022/05/16 10:54:13;;;;;;;1.75;0.82;;;;;;;25.92;49.61;98366.19;15297015;19;20014;-78
2022/05/16 10:59:31;;;;;;;2.58;1.00;;;;;;;25.71;49.51;98376.22;15287684;19;20132;-79
2022/05/16 11:05:02;;;;;;;1.92;1.00;;;;;;;25.37;50.99;98388.28;15284789;19;20018;-77
2022/05/16 11:10:18;;;;;;;3.63;1.15;;;;;;;24.99;53.04;98383.72;15290623;19;20014;-77
2022/05/16 11:15:31;;;;;;;3.00;1.10;;;;;;;24.75;54.19;98389.47;15292552;19;20010;-77
2022/05/16 11:20:42;;;;;;;4.85;0.90;;;;;;;24.50;54.03;98390.75;15296070;19;20017;-78
2022/05/16 11:25:58;;;;;;;6.27;1.10;;;;;;;24.20;51.78;98394.69;15291802;19;20332;-78
2022/05/16 11:31:08;;;;;;;2.05;0.90;;;;;;;23.99;52.37;98391.63;15287645;19;20329;-76
2022/05/16 11:36:22;;;;;;;2.33;0.90;;;;;;;23.85;52.70;98390.25;15265057;19;20022;-77
2022/05/16 11:41:44;;;;;;;1.98;0.80;;;;;;;23.66;53.02;98389.63;15291693;19;20007;-78
2022/05/16 11:46:55;;;;;;;5.90;0.85;;;;;;;23.59;53.24;98398.03;15287573;19;20018;-78
2022/05/16 11:52:31;;;;;;;6.05;1.00;;;;;;;23.22;55.34;98412.22;15291879;19;20513;-77
2022/05/16 12:03:16;;;;;;;4.82;1.10;;;;;;;22.66;61.01;98429.13;15294433;19;20090;-77
2022/05/16 12:08:44;;;;;;;6.47;1.00;;;;;;;22.04;71.86;98446.84;15290692;19;20081;-79
2022/05/16 12:14:09;;;;;;;3.20;1.05;;;;;;;21.70;86.89;98460.22;15291375;19;20362;-78
2022/05/16 12:19:18;;;;;;;2.72;1.08;;;;;;;20.72;100.00;98471.06;15293439;19;20021;-77
2022/05/16 12:24:58;;;;;;;2.47;0.93;;;;;;;20.08;100.00;98457.50;15296359;19;20022;-78
2022/05/16 12:30:08;;;;;;;6.53;1.20;;;;;;;19.66;100.00;98464.28;15355499;19;20036;-78
2022/05/16 12:35:17;;;;;;;3.45;1.98;;;;;;;19.54;100.00;98449.66;15301163;19;20054;-77
2022/05/16 12:40:39;;;;;;;2.97;1.15;;;;;;;19.29;100.00;98455.88;15295591;19;20034;-78
2022/05/16 12:46:06;;;;;;;4.22;1.30;;;;;;;19.21;100.00;98461.59;15298724;19;20630;-77
2022/05/16 12:51:29;;;;;;;3.35;1.30;;;;;;;18.98;100.00;98453.88;15296171;19;20050;-77
2022/05/16 12:56:41;;;;;;;2.05;1.40;;;;;;;18.82;100.00;98468.81;15297453;19;20074;-77
2022/05/16 13:01:51;;;;;;;;;;;;;;;18.78;100.00;98462.94;15301941;19;20023;-77
2022/05/16 13:07:05;;;;;;;2.08;1.20;;;;;;;18.68;100.00;98463.38;15290053;19;19926;-77
2022/05/16 13:12:22;;;;;;;3.50;1.35;;;;;;;18.90;100.00;98463.09;15292882;19;20027;-77
2022/05/16 13:17:40;;;;;;;2.78;1.40;;;;;;;19.18;100.00;98440.16;15296422;19;20356;-78
2022/05/16 13:22:48;;;;;;;4.20;1.20;;;;;;;19.73;100.00;98420.53;15293611;19;20027;-77
2022/05/16 13:33:34;;;;;;;3.10;1.30;;;;;;;20.90;100.00;98397.16;15289397;19;20018;-77
2022/05/16 13:38:39;;;;;;;4.20;1.42;;;;;;;21.30;100.00;98397.72;15301874;19;20011;-79
2022/05/16 13:43:44;;;;;;;2.45;1.02;;;;;;;21.57;100.00;98378.97;15300254;19;20082;-77
2022/05/16 13:49:01;;;;;;;2.55;1.20;;;;;;;22.19;100.00;98364.06;15304188;19;20028;-78
2022/05/16 13:54:17;;;;;;;2.78;1.02;;;;;;;22.40;100.00;98356.31;15295822;19;20085;-77
2022/05/16 13:59:25;;;;;;;2.22;1.20;;;;;;;22.86;100.00;98345.50;15304841;19;20014;-77
2022/05/16 14:04:38;;;;;;;1.80;1.02;;;;;;;22.93;100.00;98341.53;15297359;19;20026;-77
2022/05/16 14:09:49;;;;;;;4.05;1.30;;;;;;;22.99;100.00;98339.72;15296070;19;20046;-77
2022/05/16 14:14:55;;;;;;;1.77;1.10;;;;;;;23.27;100.00;98321.59;15295589;19;20352;-75
2022/05/16 14:20:20;;;;;;;2.53;1.20;;;;;;;23.44;100.00;98312.56;15313546;19;20010;-75
2022/05/16 14:25:34;;;;;;;1.63;1.00;;;;;;;23.76;100.00;98315.53;15346785;19;20009;-75
2022/05/16 14:30:39;;;;;;;2.55;1.05;;;;;;;23.88;100.00;98304.47;15283405;19;20020;-75
2022/05/16 14:35:59;;;;;;;4.70;1.15;;;;;;;23.82;100.00;98298.06;15277718;19;20012;-75
2022/05/16 14:41:15;;;;;;;2.70;1.20;;;;;;;23.84;100.00;98295.03;15279972;19;20049;-76
2022/05/16 14:51:53;;;;;;;1.60;0.98;;;;;;;24.34;100.00;98281.47;15272535;19;20034;-76
2022/05/16 14:56:59;;;;;;;1.15;0.90;;;;;;;25.02;100.00;98276.53;15271278;19;20031;-76
2022/05/16 15:07:33;;;;;;;2.53;1.00;;;;;;;25.92;100.00;98282.59;15280225;19;20755;-78
2022/05/16 15:12:42;;;;;;;2.90;1.20;;;;;;;25.79;100.00;98276.44;15288834;19;20018;-78
2022/05/16 15:17:51;;;;;;;1.88;0.93;;;;;;;25.43;100.00;98278.88;15294669;19;20018;-80
2022/05/16 15:22:59;;;;;;;4.25;1.05;;;;;;;25.87;100.00;98277.00;15297382;19;20032;-79
2022/05/16 15:28:06;;;;;;;2.30;0.88;;;;;;;26.34;100.00;98278.16;15295790;19;20844;-78
2022/05/16 15:33:12;;;;;;;2.00;1.00;;;;;;;26.09;100.00;98272.19;15293425;19;20578;-79
2022/05/16 15:38:22;;;;;;;2.17;1.00;;;;;;;26.02;100.00;98256.97;15296500;19;20018;-79
2022/05/16 15:43:28;;;;;;;2.13;1.10;;;;;;;25.97;100.00;98246.72;15291770;19;20505;-79
2022/05/16 15:48:33;;;;;;;3.25;0.93;;;;;;;26.28;98.10;98246.94;15294298;19;20019;-80
2022/05/16 15:53:41;;;;;;;1.45;0.98;;;;;;;26.05;97.38;98242.63;15289879;19;20059;-79
2022/05/16 15:58:47;;;;;;;4.30;1.55;;;;;;;25.86;98.77;98240.31;15292406;19;20014;-79
2022/05/16 16:09:12;;;;;;;2.83;1.23;;;;;;;25.06;100.00;98244.59;15294423;19;20166;-79
2022/05/16 16:14:22;;;;;;;1.83;1.15;;;;;;;24.86;100.00;98234.22;15284288;19;20102;-77
2022/05/16 16:19:29;;;;;;;3.40;1.30;;;;;;;24.62;100.00;98244.66;15288627;19;20018;-78
2022/05/16 16:24:38;;;;;;;4.25;1.50;;;;;;;24.21;100.00;98233.97;15289919;19;20014;-77
2022/05/16 16:29:43;;;;;;;2.67;1.50;;;;;;;24.23;100.00;98229.03;15290151;19;20111;-78
2022/05/16 16:34:48;;;;;;;1.98;1.30;;;;;;;24.09;100.00;98216.75;15283967;19;20018;-79
2022/05/16 16:39:56;;;;;;;3.42;1.20;;;;;;;24.05;100.00;98223.84;15296875;19;20015;-79
2022/05/16 16:45:01;;;;;;;3.90;1.40;;;;;;;23.96;100.00;98207.75;15294997;19;20020;-80
2022/05/16 16:50:07;;;;;;;3.72;1.33;;;;;;;24.02;100.00;98211.41;15293194;19;20015;-80
2022/05/16 17:00:33;;;;;;;4.57;1.48;;;;;;;23.92;100.00;98206.59;15297474;19;20754;-79
2022/05/16 17:05:40;;;;;;;2.75;1.42;;;;;;;23.91;100.00;98215.09;15286535;19;20019;-79
2022/05/16 17:10:52;;;;;;;2.75;1.27;;;;;;;23.90;100.00;98205.16;15296024;19;20766;-77
2022/05/16 17:16:00;;;;;;;4.07;1.35;;;;;;;23.85;100.00;98206.78;15291735;19;20015;-78
2022/05/16 17:21:08;;;;;;;3.83;1.40;;;;;;;23.78;100.00;98219.84;15302053;19;20006;-79
2022/05/16 17:26:22;;;;;;;6.28;1.40;;;;;;;23.64;100.00;98218.53;15300455;19;20002;-78
2022/05/16 17:31:27;;;;;;;3.22;1.52;;;;;;;23.42;100.00;98215.75;15315692;19;20018;-79
2022/05/16 17:36:33;;;;;;;1.90;1.38;;;;;;;23.15;100.00;98221.84;15312912;19;20027;-79
2022/05/16 17:41:41;;;;;;;2.47;1.48;;;;;;;22.80;100.00;98225.63;15309388;19;20031;-79
2022/05/16 17:46:47;;;;;;;2.58;1.30;;;;;;;22.26;100.00;98221.25;15312066;19;20010;-80
2022/05/16 17:51:54;;;;;;;2.45;1.40;;;;;;;21.96;100.00;98227.75;15312172;19;20051;-78
2022/05/16 17:57:02;;;;;;;2.88;1.00;;;;;;;21.58;100.00;98254.56;15313121;19;20018;-80
2022/05/16 18:02:08;;;;;;;2.20;1.08;;;;;;;21.48;100.00;98246.09;15316381;19;20019;-82
2022/05/16 18:07:13;;;;;;;1.88;1.00;;;;;;;21.34;100.00;98256.44;15311975;19;20689;-79
2022/05/16 18:17:39;;;;;;;2.38;1.40;;;;;;;20.72;100.00;98287.63;15315955;19;20006;-81
2022/05/16 18:22:57;;;;;;;3.10;1.52;;;;;;;20.59;100.00;98289.47;15358618;19;20048;-78
2022/05/16 18:28:22;;;;;;;2.80;1.30;;;;;;;20.40;100.00;98309.72;15350798;19;20468;-78
2022/05/16 18:33:30;;;;;;;1.70;1.20;;;;;;;20.22;100.00;98319.56;15351539;19;20019;-77
2022/05/16 18:38:36;;;;;;;3.00;1.20;;;;;;;20.16;100.00;98325.97;15324850;19;20511;-79
2022/05/16 18:54:38;;;;;;;2.80;0.80;;;;;;;19.93;100.00;98335.66;15295861;19;20027;-79
2022/05/16 18:59:46;;;;;;;1.48;0.70;;;;;;;19.82;100.00;98339.91;15292726;19;20634;-77
2022/05/16 19:04:51;;;;;;;2.08;0.73;;;;;;;19.67;100.00;98359.38;15292622;19;20046;-79
2022/05/16 19:09:56;;;;;;;1.45;0.85;;;;;;;19.56;100.00;98357.38;15304364;19;20010;-79
2022/05/16 19:15:04;;;;;;;1.05;0.80;;;;;;;19.43;100.00;98365.66;15286858;19;20014;-77
2022/05/16 19:20:11;;;;;;;1.95;0.88;;;;;;;19.28;100.00;98377.69;15292093;19;20022;-77
2022/05/16 19:25:19;;;;;;;1.75;0.70;;;;;;;19.12;100.00;98378.19;15289228;19;20027;-79
2022/05/16 19:35:52;;;;;;;3.28;0.98;;;;;;;18.84;100.00;98395.75;15285684;19;20018;-78
2022/05/16 19:40:58;;;;;;;1.70;0.90;;;;;;;18.68;100.00;98403.34;15294759;19;20476;-80
2022/05/16 19:46:10;;;;;;;1.45;0.90;;;;;;;18.47;100.00;98408.00;15286899;19;20013;-81
2022/05/16 19:51:17;;;;;;;1.70;0.90;;;;;;;18.39;100.00;98410.97;15284127;19;20018;-80
2022/05/16 19:56:22;;;;;;;3.63;1.20;;;;;;;18.18;100.00;98415.59;15286570;19;20026;-80
2022/05/16 20:01:30;;;;;;;3.20;1.33;;;;;;;18.02;100.00;98427.75;15292510;19;20006;-79
2022/05/16 20:06:35;;;;;;;2.08;1.20;;;;;;;17.88;100.00;98436.94;15289979;19;20031;-77
2022/05/16 20:11:45;;;;;;;3.85;1.40;;;;;;;17.75;100.00;98437.78;15293189;19;20015;-80
2022/05/16 20:16:54;;;;;;;4.22;1.40;;;;;;;17.66;100.00;98444.47;15289763;19;20010;-80
2022/05/16 20:27:23;;;;;;;2.47;1.13;;;;;;;17.43;100.00;98453.84;15288180;19;20024;-80
2022/05/16 20:32:30;;;;;;;2.50;1.50;;;;;;;17.39;100.00;98449.84;15288454;19;20536;-81
2022/05/16 20:37:35;;;;;;;2.67;1.50;;;;;;;17.36;100.00;98456.56;15291130;19;20014;-81
2022/05/16 20:42:40;;;;;;;2.97;1.70;;;;;;;17.31;100.00;98467.22;15290529;19;20500;-81
2022/05/16 20:47:48;;;;;;;1.80;1.30;;;;;;;17.23;100.00;98467.41;15293130;19;20006;-81
2022/05/16 20:52:54;;;;;;;2.70;1.30;;;;;;;17.19;100.00;98456.06;15279724;19;20021;-80
2022/05/16 20:57:59;;;;;;;2.95;1.38;;;;;;;17.15;100.00;98462.13;15305264;19;20010;-80
2022/05/16 21:03:08;;;;;;;3.30;1.40;;;;;;;17.17;100.00;98452.72;15321961;19;20018;-80
2022/05/16 21:08:13;;;;;;;2.95;1.50;;;;;;;17.18;100.00;98448.09;15328391;19;20021;-79
2022/05/16 21:13:18;;;;;;;2.83;1.52;;;;;;;17.12;100.00;98454.38;15328063;19;20018;-79
2022/05/16 21:18:25;;;;;;;2.47;1.40;;;;;;;17.04;100.00;98452.66;15327891;19;20013;-81
2022/05/16 21:23:31;;;;;;;3.42;1.50;;;;;;;16.92;100.00;98466.81;15319477;19;20038;-79
2022/05/16 21:28:36;;;;;;;2.70;1.50;;;;;;;16.73;100.00;98481.97;15325334;19;20014;-80
2022/05/16 21:33:45;;;;;;;2.83;1.65;;;;;;;16.73;100.00;98481.16;15305882;19;20018;-81
2022/05/16 21:38:50;;;;;;;1.95;1.42;;;;;;;16.69;100.00;98488.00;15308971;19;20043;-81
2022/05/16 21:49:20;;;;;;;2.05;1.50;;;;;;;16.53;100.00;98498.16;15307352;19;20077;-80
2022/05/16 21:54:25;;;;;;;2.42;1.50;;;;;;;16.50;100.00;98501.28;15302698;19;20035;-79
2022/05/16 21:59:30;;;;;;;2.22;1.40;;;;;;;16.55;100.00;98508.84;15305206;19;20109;-80
2022/05/16 22:04:37;;;;;;;2.60;1.50;;;;;;;16.59;100.00;98502.81;15305374;19;20011;-80
2022/05/16 22:09:42;;;;;;;3.15;1.52;;;;;;;16.58;100.00;98503.03;15311452;19;20017;-80
2022/05/16 22:14:48;;;;;;;2.72;1.40;;;;;;;16.56;100.00;98516.81;15307249;19;20006;-81
2022/05/16 22:19:57;;;;;;;2.15;1.30;;;;;;;16.54;100.00;98529.75;15342365;19;20031;-80
2022/05/16 22:25:02;;;;;;;2.47;1.55;;;;;;;16.52;100.00;98529.13;15332261;19;20006;-80
2022/05/16 22:30:10;;;;;;;2.58;1.50;;;;;;;16.54;100.00;98534.38;15296429;19;20010;-81
2022/05/16 22:35:25;;;;;;;4.55;1.65;;;;;;;16.55;100.00;98534.16;15295485;19;20342;-80
2022/05/16 22:40:32;;;;;;;3.55;1.70;;;;;;;16.47;100.00;98529.69;15302226;19;20010;-80
2022/05/16 22:45:37;;;;;;;3.20;1.70;;;;;;;16.44;100.00;98535.56;15297769;19;20078;-81
2022/05/16 22:50:45;;;;;;;3.83;1.85;;;;;;;16.43;100.00;98538.44;15298235;19;20019;-81
2022/05/16 22:55:52;;;;;;;4.68;1.90;;;;;;;16.39;100.00;98539.91;15296413;19;20472;-81
2022/05/16 23:00:58;;;;;;;3.88;1.80;;;;;;;16.33;100.00;98545.06;15294559;19;20007;-80
2022/05/16 23:06:10;;;;;;;4.32;2.10;;;;;;;16.31;100.00;98544.41;15295148;19;20007;-79
2022/05/16 23:11:16;;;;;;;4.43;2.15;;;;;;;16.31;100.00;98557.19;15296499;19;20010;-79
2022/05/16 23:16:21;;;;;;;3.90;2.08;;;;;;;16.29;100.00;98564.69;15292411;19;20787;-79
2022/05/16 23:21:29;;;;;;;3.58;1.95;;;;;;;16.24;100.00;98561.69;15296153;19;20010;-80
2022/05/16 23:26:34;;;;;;;3.45;2.38;;;;;;;16.25;100.00;98568.81;15291084;19;20017;-80
2022/05/16 23:31:39;;;;;;;3.95;2.40;;;;;;;16.26;100.00;98576.78;15298008;19;20460;-80
2022/05/16 23:36:47;;;;;;;4.97;2.83;;;;;;;16.27;100.00;98562.16;15286154;19;20015;-79
2022/05/16 23:41:53;;;;;;;4.80;2.90;;;;;;;16.21;100.00;98557.50;15294354;19;20081;-79
2022/05/16 23:46:58;;;;;;;5.05;2.88;;;;;;;16.14;100.00;98557.44;15289824;19;20022;-78
2022/05/16 23:52:07;;;;;;;4.35;2.58;;;;;;;16.10;100.00;98566.16;15289633;19;20023;-80
2022/05/16 23:57:13;;;;;;;5.13;3.05;;;;;;;16.05;100.00;98571.38;15289446;19;20419;-79
